sensor_id;sensor_type;location;lat;lon;timestamp;pressure;altitude;pressure_sealevel;temperature;humidity
63111;BME280;49201;53.426;10.300;2023-04-06T00:00:53;102155.00;;;1.82;100.00
63111;BME280;49201;53.426;10.300;2023-04-06T00:03:19;102145.13;;;1.74;100.00
63111;BME280;49201;53.426;10.300;2023-04-06T00:05:46;102136.66;;;1.73;100.00
63111;BME280;49201;53.426;10.300;2023-04-06T00:08:12;102131.16;;;1.67;100.00
63111;BME280;49201;53.426;10.300;2023-04-06T00:10:37;102140.91;;;1.63;100.00
63111;BME280;49201;53.426;10.300;2023-04-06T00:13:03;102137.25;;;1.59;100.00
63111;BME280;49201;53.426;10.300;2023-04-06T00:15:29;102134.25;;;1.42;100.00
63111;BME280;49201;53.426;10.300;2023-04-06T00:17:55;102134.56;;;1.46;100.00
63111;BME280;49201;53.426;10.300;2023-04-06T00:20:20;102136.13;;;1.44;100.00
63111;BME280;49201;53.426;10.300;2023-04-06T00:22:46;102139.81;;;1.38;100.00
63111;BME280;49201;53.426;10.300;2023-04-06T00:25:11;102133.47;;;1.43;100.00
63111;BME280;49201;53.426;10.300;2023-04-06T00:27:38;102131.72;;;1.42;100.00
63111;BME280;49201;53.426;10.300;2023-04-06T00:30:04;102130.59;;;1.38;100.00
63111;BME280;49201;53.426;10.300;2023-04-06T00:32:30;102128.72;;;1.36;100.00
63111;BME280;49201;53.426;10.300;2023-04-06T00:34:56;102128.63;;;1.34;100.00
63111;BME280;49201;53.426;10.300;2023-04-06T00:37:22;102128.38;;;1.31;100.00
63111;BME280;49201;53.426;10.300;2023-04-06T00:39:47;102131.72;;;1.20;100.00
63111;BME280;49201;53.426;10.300;2023-04-06T00:42:13;102123.72;;;1.26;100.00
63111;BME280;49201;53.426;10.300;2023-04-06T00:44:40;102124.97;;;1.31;100.00
63111;BME280;49201;53.426;10.300;2023-04-06T00:47:07;102121.72;;;1.22;100.00
63111;BME280;49201;53.426;10.300;2023-04-06T00:49:33;102118.63;;;1.14;100.00
63111;BME280;49201;53.426;10.300;2023-04-06T00:52:00;102117.34;;;1.19;100.00
63111;BME280;49201;53.426;10.300;2023-04-06T00:54:27;102119.72;;;1.18;100.00
63111;BME280;49201;53.426;10.300;2023-04-06T00:56:53;102117.00;;;1.15;100.00
63111;BME280;49201;53.426;10.300;2023-04-06T00:59:19;102120.81;;;1.10;100.00
63111;BME280;49201;53.426;10.300;2023-04-06T01:01:45;102111.50;;;1.09;100.00
63111;BME280;49201;53.426;10.300;2023-04-06T01:04:40;102109.59;;;1.06;100.00
63111;BME280;49201;53.426;10.300;2023-04-06T01:07:10;102107.25;;;0.98;100.00
63111;BME280;49201;53.426;10.300;2023-04-06T01:09:43;102107.91;;;0.95;100.00
63111;BME280;49201;53.426;10.300;2023-04-06T01:12:17;102109.81;;;0.88;100.00
63111;BME280;49201;53.426;10.300;2023-04-06T01:14:42;102109.44;;;0.93;100.00
63111;BME280;49201;53.426;10.300;2023-04-06T01:17:08;102097.69;;;0.94;100.00
63111;BME280;49201;53.426;10.300;2023-04-06T01:19:34;102105.13;;;0.92;100.00
63111;BME280;49201;53.426;10.300;2023-04-06T01:22:00;102094.81;;;0.89;100.00
63111;BME280;49201;53.426;10.300;2023-04-06T01:24:31;102105.56;;;0.87;100.00
63111;BME280;49201;53.426;10.300;2023-04-06T01:27:09;102102.13;;;0.86;100.00
63111;BME280;49201;53.426;10.300;2023-04-06T01:29:55;102098.63;;;0.84;100.00
63111;BME280;49201;53.426;10.300;2023-04-06T01:32:35;102095.59;;;0.88;100.00
63111;BME280;49201;53.426;10.300;2023-04-06T01:35:00;102091.28;;;0.87;100.00
63111;BME280;49201;53.426;10.300;2023-04-06T01:37:26;102095.59;;;0.88;100.00
63111;BME280;49201;53.426;10.300;2023-04-06T01:39:54;102094.31;;;0.83;100.00
63111;BME280;49201;53.426;10.300;2023-04-06T01:42:35;102096.25;;;0.76;100.00
63111;BME280;49201;53.426;10.300;2023-04-06T01:45:00;102106.25;;;0.74;100.00
63111;BME280;49201;53.426;10.300;2023-04-06T01:47:26;102101.72;;;0.70;100.00
63111;BME280;49201;53.426;10.300;2023-04-06T01:49:52;102094.03;;;0.69;100.00
63111;BME280;49201;53.426;10.300;2023-04-06T01:52:17;102092.16;;;0.66;100.00
63111;BME280;49201;53.426;10.300;2023-04-06T01:54:49;102086.22;;;0.66;100.00
63111;BME280;49201;53.426;10.300;2023-04-06T01:57:45;102090.41;;;0.65;100.00
63111;BME280;49201;53.426;10.300;2023-04-06T02:00:24;102092.53;;;0.61;100.00
63111;BME280;49201;53.426;10.300;2023-04-06T02:02:52;102087.38;;;0.59;100.00
63111;BME280;49201;53.426;10.300;2023-04-06T02:05:23;102086.16;;;0.54;100.00
63111;BME280;49201;53.426;10.300;2023-04-06T02:07:50;102089.44;;;0.53;100.00
63111;BME280;49201;53.426;10.300;2023-04-06T02:10:22;102082.63;;;0.52;100.00
63111;BME280;49201;53.426;10.300;2023-04-06T02:12:48;102084.41;;;0.53;100.00
63111;BME280;49201;53.426;10.300;2023-04-06T02:15:20;102084.06;;;0.49;100.00
63111;BME280;49201;53.426;10.300;2023-04-06T02:17:46;102081.16;;;0.44;100.00
63111;BME280;49201;53.426;10.300;2023-04-06T02:20:11;102082.03;;;0.45;100.00
63111;BME280;49201;53.426;10.300;2023-04-06T02:22:38;102083.28;;;0.50;100.00
63111;BME280;49201;53.426;10.300;2023-04-06T02:25:04;102084.41;;;0.53;100.00
63111;BME280;49201;53.426;10.300;2023-04-06T02:27:30;102077.72;;;0.54;100.00
63111;BME280;49201;53.426;10.300;2023-04-06T02:29:55;102079.09;;;0.50;100.00
63111;BME280;49201;53.426;10.300;2023-04-06T02:32:21;102076.59;;;0.50;100.00
63111;BME280;49201;53.426;10.300;2023-04-06T02:34:47;102081.88;;;0.53;100.00
63111;BME280;49201;53.426;10.300;2023-04-06T02:37:13;102082.75;;;0.54;100.00
63111;BME280;49201;53.426;10.300;2023-04-06T02:39:38;102084.53;;;0.55;100.00
63111;BME280;49201;53.426;10.300;2023-04-06T02:42:07;102082.84;;;0.55;100.00
63111;BME280;49201;53.426;10.300;2023-04-06T02:44:34;102086.16;;;0.54;100.00
63111;BME280;49201;53.426;10.300;2023-04-06T02:47:00;102080.97;;;0.52;100.00
63111;BME280;49201;53.426;10.300;2023-04-06T02:49:26;102076.25;;;0.46;100.00
63111;BME280;49201;53.426;10.300;2023-04-06T02:51:54;102082.69;;;0.42;100.00
63111;BME280;49201;53.426;10.300;2023-04-06T02:54:24;102085.84;;;0.40;100.00
63111;BME280;49201;53.426;10.300;2023-04-06T02:56:50;102089.97;;;0.39;100.00
63111;BME280;49201;53.426;10.300;2023-04-06T02:59:16;102083.53;;;0.43;100.00
63111;BME280;49201;53.426;10.300;2023-04-06T03:01:49;102089.97;;;0.39;100.00
63111;BME280;49201;53.426;10.300;2023-04-06T03:04:15;102076.91;;;0.33;100.00
63111;BME280;49201;53.426;10.300;2023-04-06T03:06:40;102078.94;;;0.27;100.00
63111;BME280;49201;53.426;10.300;2023-04-06T03:09:16;102077.19;;;0.26;100.00
63111;BME280;49201;53.426;10.300;2023-04-06T03:11:43;102073.28;;;0.19;100.00
63111;BME280;49201;53.426;10.300;2023-04-06T03:14:08;102073.91;;;0.17;100.00
63111;BME280;49201;53.426;10.300;2023-04-06T03:16:34;102071.91;;;0.13;100.00
63111;BME280;49201;53.426;10.300;2023-04-06T03:19:01;102072.94;;;0.15;100.00
63111;BME280;49201;53.426;10.300;2023-04-06T03:21:27;102077.72;;;0.12;100.00
63111;BME280;49201;53.426;10.300;2023-04-06T03:23:53;102075.19;;;0.12;100.00
63111;BME280;49201;53.426;10.300;2023-04-06T03:26:19;102069.66;;;0.16;100.00
63111;BME280;49201;53.426;10.300;2023-04-06T03:28:45;102074.94;;;0.09;100.00
63111;BME280;49201;53.426;10.300;2023-04-06T03:31:10;102072.56;;;0.10;100.00
63111;BME280;49201;53.426;10.300;2023-04-06T03:33:52;102076.94;;;0.13;100.00
63111;BME280;49201;53.426;10.300;2023-04-06T03:36:22;102076.81;;;0.11;100.00
63111;BME280;49201;53.426;10.300;2023-04-06T03:38:48;102075.97;;;0.11;100.00
63111;BME280;49201;53.426;10.300;2023-04-06T03:41:14;102081.50;;;0.07;100.00
63111;BME280;49201;53.426;10.300;2023-04-06T03:43:44;102074.47;;;0.03;100.00
63111;BME280;49201;53.426;10.300;2023-04-06T03:46:10;102074.84;;;-0.03;100.00
63111;BME280;49201;53.426;10.300;2023-04-06T03:48:35;102081.25;;;-0.06;100.00
63111;BME280;49201;53.426;10.300;2023-04-06T03:51:04;102076.22;;;-0.06;100.00
63111;BME280;49201;53.426;10.300;2023-04-06T03:53:30;102080.78;;;-0.12;100.00
63111;BME280;49201;53.426;10.300;2023-04-06T03:55:55;102083.28;;;-0.12;100.00
63111;BME280;49201;53.426;10.300;2023-04-06T03:58:21;102079.88;;;-0.13;100.00
63111;BME280;49201;53.426;10.300;2023-04-06T04:00:46;102087.44;;;-0.13;100.00
63111;BME280;49201;53.426;10.300;2023-04-06T04:03:12;102080.38;;;-0.17;100.00
63111;BME280;49201;53.426;10.300;2023-04-06T04:05:37;102075.34;;;-0.17;100.00
63111;BME280;49201;53.426;10.300;2023-04-06T04:08:03;102080.53;;;-0.15;100.00
63111;BME280;49201;53.426;10.300;2023-04-06T04:10:30;102081.16;;;-0.18;100.00
63111;BME280;49201;53.426;10.300;2023-04-06T04:12:55;102077.78;;;-0.18;100.00
63111;BME280;49201;53.426;10.300;2023-04-06T04:15:21;102082.03;;;-0.17;100.00
63111;BME280;49201;53.426;10.300;2023-04-06T04:17:47;102077.00;;;-0.17;100.00
63111;BME280;49201;53.426;10.300;2023-04-06T04:20:15;102080.66;;;-0.24;100.00
63111;BME280;49201;53.426;10.300;2023-04-06T04:22:41;102085.56;;;-0.25;100.00
63111;BME280;49201;53.426;10.300;2023-04-06T04:25:09;102088.97;;;-0.25;100.00
63111;BME280;49201;53.426;10.300;2023-04-06T04:27:39;102089.84;;;-0.24;100.00
63111;BME280;49201;53.426;10.300;2023-04-06T04:30:06;102087.81;;;-0.28;100.00
63111;BME280;49201;53.426;10.300;2023-04-06T04:32:31;102100.41;;;-0.28;100.00
63111;BME280;49201;53.426;10.300;2023-04-06T04:34:59;102091.22;;;-0.28;100.00
63111;BME280;49201;53.426;10.300;2023-04-06T04:37:36;102100.16;;;-0.31;100.00
63111;BME280;49201;53.426;10.300;2023-04-06T04:40:03;102099.41;;;-0.30;100.00
63111;BME280;49201;53.426;10.300;2023-04-06T04:42:33;102092.50;;;-0.33;100.00
63111;BME280;49201;53.426;10.300;2023-04-06T04:45:00;102098.28;;;-0.34;100.00
63111;BME280;49201;53.426;10.300;2023-04-06T04:47:35;102094.88;;;-0.34;100.00
63111;BME280;49201;53.426;10.300;2023-04-06T04:50:00;102099.28;;;-0.32;100.00
63111;BME280;49201;53.426;10.300;2023-04-06T04:52:26;102103.31;;;-0.34;100.00
63111;BME280;49201;53.426;10.300;2023-04-06T04:55:17;102097.38;;;-0.34;100.00
63111;BME280;49201;53.426;10.300;2023-04-06T04:57:46;102106.69;;;-0.33;100.00
63111;BME280;49201;53.426;10.300;2023-04-06T05:00:12;102098.41;;;-0.32;100.00
63111;BME280;49201;53.426;10.300;2023-04-06T05:02:41;102098.53;;;-0.41;100.00
63111;BME280;49201;53.426;10.300;2023-04-06T05:05:13;102095.50;;;-0.37;100.00
63111;BME280;49201;53.426;10.300;2023-04-06T05:07:40;102098.03;;;-0.37;100.00
63111;BME280;49201;53.426;10.300;2023-04-06T05:10:09;102095.78;;;-0.34;100.00
63111;BME280;49201;53.426;10.300;2023-04-06T05:12:42;102099.28;;;-0.32;100.00
63111;BME280;49201;53.426;10.300;2023-04-06T05:15:10;102098.66;;;-0.29;100.00
63111;BME280;49201;53.426;10.300;2023-04-06T05:17:36;102099.78;;;-0.26;100.00
63111;BME280;49201;53.426;10.300;2023-04-06T05:20:02;102102.28;;;-0.26;100.00
63111;BME280;49201;53.426;10.300;2023-04-06T05:22:32;102101.28;;;-0.18;100.00
63111;BME280;49201;53.426;10.300;2023-04-06T05:25:04;102103.16;;;-0.15;100.00
63111;BME280;49201;53.426;10.300;2023-04-06T05:27:30;102103.56;;;-0.11;100.00
63111;BME280;49201;53.426;10.300;2023-04-06T05:29:57;102107.06;;;-0.09;100.00
63111;BME280;49201;53.426;10.300;2023-04-06T05:32:25;102105.16;;;-0.01;100.00
63111;BME280;49201;53.426;10.300;2023-04-06T05:34:51;102100.88;;;0.08;100.00
63111;BME280;49201;53.426;10.300;2023-04-06T05:37:16;102096.56;;;0.17;100.00
63111;BME280;49201;53.426;10.300;2023-04-06T05:39:42;102100.22;;;0.31;100.00
63111;BME280;49201;53.426;10.300;2023-04-06T05:42:08;102098.66;;;0.43;100.00
63111;BME280;49201;53.426;10.300;2023-04-06T05:44:55;102107.41;;;0.57;100.00
63111;BME280;49201;53.426;10.300;2023-04-06T05:47:20;102097.06;;;0.65;100.00
63111;BME280;49201;53.426;10.300;2023-04-06T05:49:52;102105.31;;;0.84;100.00
63111;BME280;49201;53.426;10.300;2023-04-06T05:52:35;102099.16;;;1.02;100.00
63111;BME280;49201;53.426;10.300;2023-04-06T05:55:01;102100.56;;;1.20;100.00
63111;BME280;49201;53.426;10.300;2023-04-06T05:57:26;102086.59;;;1.35;100.00
63111;BME280;49201;53.426;10.300;2023-04-06T05:59:53;102092.47;;;1.45;100.00
63111;BME280;49201;53.426;10.300;2023-04-06T06:02:20;102094.25;;;1.58;100.00
63111;BME280;49201;53.426;10.300;2023-04-06T06:04:49;102094.28;;;1.69;100.00
63111;BME280;49201;53.426;10.300;2023-04-06T06:07:16;102098.50;;;1.80;100.00
63111;BME280;49201;53.426;10.300;2023-04-06T06:09:47;102096.19;;;1.83;100.00
63111;BME280;49201;53.426;10.300;2023-04-06T06:12:21;102102.16;;;1.95;100.00
63111;BME280;49201;53.426;10.300;2023-04-06T06:14:48;102102.34;;;2.10;100.00
63111;BME280;49201;53.426;10.300;2023-04-06T06:17:14;102093.03;;;2.32;100.00
63111;BME280;49201;53.426;10.300;2023-04-06T06:19:41;102099.31;;;2.48;100.00
63111;BME280;49201;53.426;10.300;2023-04-06T06:22:07;102094.03;;;2.57;100.00
63111;BME280;49201;53.426;10.300;2023-04-06T06:24:36;102098.19;;;2.68;100.00
63111;BME280;49201;53.426;10.300;2023-04-06T06:27:02;102093.34;;;2.82;100.00
63111;BME280;49201;53.426;10.300;2023-04-06T06:29:30;102090.88;;;2.95;100.00
63111;BME280;49201;53.426;10.300;2023-04-06T06:31:57;102092.06;;;3.12;100.00
63111;BME280;49201;53.426;10.300;2023-04-06T06:34:23;102089.41;;;3.10;100.00
63111;BME280;49201;53.426;10.300;2023-04-06T06:36:49;102079.97;;;3.32;100.00
63111;BME280;49201;53.426;10.300;2023-04-06T06:39:16;102064.44;;;3.39;100.00
63111;BME280;49201;53.426;10.300;2023-04-06T06:41:42;102041.09;;;3.43;100.00
63111;BME280;49201;53.426;10.300;2023-04-06T06:44:08;102005.59;;;3.68;100.00
63111;BME280;49201;53.426;10.300;2023-04-06T06:46:34;101987.47;;;3.75;100.00
63111;BME280;49201;53.426;10.300;2023-04-06T06:48:59;101975.31;;;3.95;100.00
63111;BME280;49201;53.426;10.300;2023-04-06T06:51:25;101954.03;;;4.19;100.00
63111;BME280;49201;53.426;10.300;2023-04-06T06:53:51;101936.59;;;4.37;100.00
63111;BME280;49201;53.426;10.300;2023-04-06T06:56:17;101910.28;;;4.62;100.00
63111;BME280;49201;53.426;10.300;2023-04-06T06:58:42;101882.38;;;4.77;100.00
63111;BME280;49201;53.426;10.300;2023-04-06T07:01:08;101867.09;;;4.90;100.00
63111;BME280;49201;53.426;10.300;2023-04-06T07:03:34;101813.91;;;5.06;100.00
63111;BME280;49201;53.426;10.300;2023-04-06T07:05:59;101809.59;;;5.19;100.00
63111;BME280;49201;53.426;10.300;2023-04-06T07:08:25;101811.25;;;5.33;100.00
63111;BME280;49201;53.426;10.300;2023-04-06T07:10:52;101743.72;;;5.37;100.00
63111;BME280;49201;53.426;10.300;2023-04-06T07:13:18;101760.06;;;5.26;100.00
63111;BME280;49201;53.426;10.300;2023-04-06T07:15:49;101741.59;;;5.44;100.00
63111;BME280;49201;53.426;10.300;2023-04-06T07:18:16;101749.66;;;5.52;100.00
63111;BME280;49201;53.426;10.300;2023-04-06T07:20:41;101764.00;;;5.82;100.00
63111;BME280;49201;53.426;10.300;2023-04-06T07:23:07;101715.50;;;5.93;100.00
63111;BME280;49201;53.426;10.300;2023-04-06T07:25:32;101742.56;;;6.09;100.00
63111;BME280;49201;53.426;10.300;2023-04-06T07:27:58;101696.06;;;6.27;100.00
63111;BME280;49201;53.426;10.300;2023-04-06T07:30:24;101711.84;;;6.38;100.00
63111;BME280;49201;53.426;10.300;2023-04-06T07:32:54;101722.00;;;6.54;100.00
63111;BME280;49201;53.426;10.300;2023-04-06T07:35:26;101719.19;;;6.83;100.00
63111;BME280;49201;53.426;10.300;2023-04-06T07:37:53;101723.84;;;6.74;100.00
63111;BME280;49201;53.426;10.300;2023-04-06T07:40:18;101743.81;;;7.00;100.00
63111;BME280;49201;53.426;10.300;2023-04-06T07:42:45;101655.06;;;7.26;100.00
63111;BME280;49201;53.426;10.300;2023-04-06T07:45:11;101522.25;;;7.57;100.00
63111;BME280;49201;53.426;10.300;2023-04-06T07:47:37;101516.66;;;7.65;100.00
63111;BME280;49201;53.426;10.300;2023-04-06T07:50:03;101522.03;;;7.71;100.00
63111;BME280;49201;53.426;10.300;2023-04-06T07:52:30;101516.94;;;7.71;100.00
63111;BME280;49201;53.426;10.300;2023-04-06T07:54:58;101494.66;;;8.08;100.00
63111;BME280;49201;53.426;10.300;2023-04-06T07:57:23;101484.50;;;8.30;100.00
63111;BME280;49201;53.426;10.300;2023-04-06T07:59:49;101479.19;;;8.24;100.00
63111;BME280;49201;53.426;10.300;2023-04-06T08:02:14;101445.41;;;8.53;100.00
63111;BME280;49201;53.426;10.300;2023-04-06T08:04:40;101430.16;;;8.55;100.00
63111;BME280;49201;53.426;10.300;2023-04-06T08:07:06;101432.50;;;8.49;100.00
63111;BME280;49201;53.426;10.300;2023-04-06T08:09:32;101472.16;;;8.63;100.00
63111;BME280;49201;53.426;10.300;2023-04-06T08:11:57;101416.44;;;8.98;100.00
63111;BME280;49201;53.426;10.300;2023-04-06T08:14:23;101320.84;;;8.92;94.70
63111;BME280;49201;53.426;10.300;2023-04-06T08:16:48;101321.56;;;9.13;94.84
63111;BME280;49201;53.426;10.300;2023-04-06T08:19:14;101313.16;;;9.15;95.98
63111;BME280;49201;53.426;10.300;2023-04-06T08:21:42;101301.53;;;9.51;92.11
63111;BME280;49201;53.426;10.300;2023-04-06T08:24:08;101300.25;;;9.39;94.64
63111;BME280;49201;53.426;10.300;2023-04-06T08:26:34;101318.63;;;9.27;95.60
63111;BME280;49201;53.426;10.300;2023-04-06T08:29:00;101257.59;;;9.64;85.89
63111;BME280;49201;53.426;10.300;2023-04-06T08:31:25;101210.69;;;9.92;82.78
63111;BME280;49201;53.426;10.300;2023-04-06T08:33:51;101181.66;;;9.90;76.96
63111;BME280;49201;53.426;10.300;2023-04-06T08:36:17;101161.50;;;10.33;74.80
63111;BME280;49201;53.426;10.300;2023-04-06T08:38:48;101158.94;;;10.33;72.24
63111;BME280;49201;53.426;10.300;2023-04-06T08:41:14;101152.75;;;10.59;72.19
63111;BME280;49201;53.426;10.300;2023-04-06T08:44:02;101188.03;;;10.70;74.46
63111;BME280;49201;53.426;10.300;2023-04-06T08:46:31;101080.81;;;11.25;60.88
63111;BME280;49201;53.426;10.300;2023-04-06T08:49:02;101163.31;;;11.08;63.37
63111;BME280;49201;53.426;10.300;2023-04-06T08:51:28;101169.25;;;11.44;61.67
63111;BME280;49201;53.426;10.300;2023-04-06T08:53:56;101168.47;;;11.09;58.63
63111;BME280;49201;53.426;10.300;2023-04-06T08:56:23;101216.06;;;11.00;60.99
63111;BME280;49201;53.426;10.300;2023-04-06T08:58:49;101284.94;;;11.56;62.42
63111;BME280;49201;53.426;10.300;2023-04-06T09:01:17;101275.78;;;11.67;57.54
63111;BME280;49201;53.426;10.300;2023-04-06T09:03:43;101455.47;;;11.39;56.51
63111;BME280;49201;53.426;10.300;2023-04-06T09:06:11;101519.53;;;11.68;59.37
63111;BME280;49201;53.426;10.300;2023-04-06T09:08:38;101519.81;;;11.80;58.11
63111;BME280;49201;53.426;10.300;2023-04-06T09:11:06;101530.03;;;12.11;56.54
63111;BME280;49201;53.426;10.300;2023-04-06T09:13:31;101531.63;;;12.06;54.64
63111;BME280;49201;53.426;10.300;2023-04-06T09:16:04;101550.78;;;12.20;53.11
63111;BME280;49201;53.426;10.300;2023-04-06T09:18:32;101535.47;;;12.62;49.90
63111;BME280;49201;53.426;10.300;2023-04-06T09:21:05;101574.59;;;12.50;46.23
63111;BME280;49201;53.426;10.300;2023-04-06T09:23:31;101615.13;;;12.62;46.20
63111;BME280;49201;53.426;10.300;2023-04-06T09:26:11;101606.78;;;12.70;44.86
63111;BME280;49201;53.426;10.300;2023-04-06T09:28:51;101634.03;;;12.64;42.12
63111;BME280;49201;53.426;10.300;2023-04-06T09:31:22;101653.09;;;12.73;43.53
63111;BME280;49201;53.426;10.300;2023-04-06T09:33:49;101639.72;;;12.17;40.16
63111;BME280;49201;53.426;10.300;2023-04-06T09:36:14;101657.06;;;11.93;40.69
63111;BME280;49201;53.426;10.300;2023-04-06T09:38:56;101664.78;;;12.61;39.89
63111;BME280;49201;53.426;10.300;2023-04-06T09:41:33;101658.41;;;12.44;40.60
63111;BME280;49201;53.426;10.300;2023-04-06T09:46:33;101669.47;;;12.41;40.57
63111;BME280;49201;53.426;10.300;2023-04-06T09:49:03;101644.34;;;12.31;39.88
63111;BME280;49201;53.426;10.300;2023-04-06T09:51:31;101665.44;;;12.52;40.68
63111;BME280;49201;53.426;10.300;2023-04-06T09:54:01;101648.44;;;12.23;40.01
63111;BME280;49201;53.426;10.300;2023-04-06T09:56:31;101668.44;;;13.05;40.23
63111;BME280;49201;53.426;10.300;2023-04-06T09:59:02;101639.75;;;12.88;38.80
63111;BME280;49201;53.426;10.300;2023-04-06T10:01:32;101660.84;;;13.09;39.13
63111;BME280;49201;53.426;10.300;2023-04-06T10:06:33;101636.41;;;14.15;37.29
63111;BME280;49201;53.426;10.300;2023-04-06T10:09:02;101636.66;;;14.29;36.68
63111;BME280;49201;53.426;10.300;2023-04-06T10:11:30;101657.81;;;14.13;37.56
63111;BME280;49201;53.426;10.300;2023-04-06T10:13:56;101648.78;;;14.34;35.99
63111;BME280;49201;53.426;10.300;2023-04-06T10:16:22;101662.50;;;13.89;36.34
63111;BME280;49201;53.426;10.300;2023-04-06T10:18:55;101662.97;;;14.14;36.93
63111;BME280;49201;53.426;10.300;2023-04-06T10:21:25;101640.44;;;14.01;36.00
63111;BME280;49201;53.426;10.300;2023-04-06T10:23:54;101686.34;;;14.23;37.56
63111;BME280;49201;53.426;10.300;2023-04-06T10:26:21;101649.28;;;14.17;36.17
63111;BME280;49201;53.426;10.300;2023-04-06T10:28:48;101659.13;;;13.93;36.61
63111;BME280;49201;53.426;10.300;2023-04-06T10:31:14;101693.31;;;14.27;38.40
63111;BME280;49201;53.426;10.300;2023-04-06T10:33:40;101654.25;;;14.52;36.80
63111;BME280;49201;53.426;10.300;2023-04-06T10:36:13;101677.75;;;14.70;37.55
63111;BME280;49201;53.426;10.300;2023-04-06T10:38:40;101655.97;;;15.08;37.51
63111;BME280;49201;53.426;10.300;2023-04-06T10:41:08;101653.19;;;15.57;35.84
63111;BME280;49201;53.426;10.300;2023-04-06T10:43:35;101654.81;;;15.46;35.86
63111;BME280;49201;53.426;10.300;2023-04-06T10:46:02;101653.13;;;15.50;35.69
63111;BME280;49201;53.426;10.300;2023-04-06T10:48:45;101680.16;;;15.15;37.05
63111;BME280;49201;53.426;10.300;2023-04-06T10:51:15;101654.84;;;15.49;35.92
63111;BME280;49201;53.426;10.300;2023-04-06T10:53:41;101679.47;;;15.26;37.24
63111;BME280;49201;53.426;10.300;2023-04-06T10:56:10;101663.03;;;15.20;35.65
63111;BME280;49201;53.426;10.300;2023-04-06T10:58:50;101648.88;;;15.55;35.24
63111;BME280;49201;53.426;10.300;2023-04-06T11:01:17;101651.34;;;14.86;35.58
63111;BME280;49201;53.426;10.300;2023-04-06T11:03:47;101660.19;;;15.64;35.97
63111;BME280;49201;53.426;10.300;2023-04-06T11:06:23;101651.19;;;15.34;35.94
63111;BME280;49201;53.426;10.300;2023-04-06T11:08:49;101650.31;;;16.05;35.37
63111;BME280;49201;53.426;10.300;2023-04-06T11:11:18;101667.38;;;15.24;35.33
63111;BME280;49201;53.426;10.300;2023-04-06T11:13:56;101663.03;;;15.20;35.41
63111;BME280;49201;53.426;10.300;2023-04-06T11:16:26;101645.94;;;15.31;35.29
63111;BME280;49201;53.426;10.300;2023-04-06T11:19:12;101645.03;;;15.96;34.50
63111;BME280;49201;53.426;10.300;2023-04-06T11:21:40;101650.69;;;15.62;35.36
63111;BME280;49201;53.426;10.300;2023-04-06T11:24:20;101648.09;;;15.60;35.57
63111;BME280;49201;53.426;10.300;2023-04-06T11:26:51;101643.50;;;15.37;35.75
63111;BME280;49201;53.426;10.300;2023-04-06T11:29:18;101644.31;;;15.34;35.80
63111;BME280;49201;53.426;10.300;2023-04-06T11:31:52;101654.53;;;14.72;36.08
63111;BME280;49201;53.426;10.300;2023-04-06T11:34:19;101662.88;;;15.09;36.06
63111;BME280;49201;53.426;10.300;2023-04-06T11:36:47;101653.22;;;15.59;36.33
63111;BME280;49201;53.426;10.300;2023-04-06T11:39:13;101665.78;;;16.03;36.90
63111;BME280;49201;53.426;10.300;2023-04-06T11:41:47;101623.53;;;15.98;34.57
63111;BME280;49201;53.426;10.300;2023-04-06T11:44:12;101652.84;;;16.00;35.30
63111;BME280;49201;53.426;10.300;2023-04-06T11:46:38;101657.69;;;15.72;35.18
63111;BME280;49201;53.426;10.300;2023-04-06T11:49:03;101641.88;;;16.22;34.85
63111;BME280;49201;53.426;10.300;2023-04-06T11:51:29;101630.88;;;16.43;34.50
63111;BME280;49201;53.426;10.300;2023-04-06T11:53:55;101646.88;;;16.07;35.42
63111;BME280;49201;53.426;10.300;2023-04-06T11:56:29;101643.53;;;16.14;34.19
63111;BME280;49201;53.426;10.300;2023-04-06T11:58:58;101643.81;;;15.61;34.56
63111;BME280;49201;53.426;10.300;2023-04-06T12:01:26;101678.03;;;15.46;35.90
63111;BME280;49201;53.426;10.300;2023-04-06T12:03:51;101646.38;;;15.59;35.21
63111;BME280;49201;53.426;10.300;2023-04-06T12:06:17;101642.78;;;15.47;35.65
63111;BME280;49201;53.426;10.300;2023-04-06T12:08:43;101636.63;;;16.13;35.02
63111;BME280;49201;53.426;10.300;2023-04-06T12:11:10;101627.97;;;16.11;34.47
63111;BME280;49201;53.426;10.300;2023-04-06T12:13:36;101636.47;;;15.97;34.46
63111;BME280;49201;53.426;10.300;2023-04-06T12:16:02;101628.06;;;16.20;33.99
63111;BME280;49201;53.426;10.300;2023-04-06T12:18:27;101629.75;;;16.15;33.59
63111;BME280;49201;53.426;10.300;2023-04-06T12:20:53;101624.44;;;16.00;34.13
63111;BME280;49201;53.426;10.300;2023-04-06T12:23:19;101633.69;;;16.70;33.92
63111;BME280;49201;53.426;10.300;2023-04-06T12:25:45;101612.34;;;15.98;33.22
63111;BME280;49201;53.426;10.300;2023-04-06T12:28:11;101654.78;;;16.21;35.29
63111;BME280;49201;53.426;10.300;2023-04-06T12:30:36;101617.38;;;16.78;33.50
63111;BME280;49201;53.426;10.300;2023-04-06T12:33:02;101615.75;;;16.97;33.42
63111;BME280;49201;53.426;10.300;2023-04-06T12:35:28;101611.56;;;17.20;32.91
63111;BME280;49201;53.426;10.300;2023-04-06T12:37:53;101637.13;;;16.69;33.85
63111;BME280;49201;53.426;10.300;2023-04-06T12:40:20;101640.97;;;16.16;33.58
63111;BME280;49201;53.426;10.300;2023-04-06T12:42:45;101627.72;;;15.86;33.85
63111;BME280;49201;53.426;10.300;2023-04-06T12:45:12;101652.47;;;16.49;34.24
63111;BME280;49201;53.426;10.300;2023-04-06T12:47:37;101641.06;;;16.29;34.10